createdAt,value
2023-02-06T00:01:47.316Z,8.10
2023-02-06T00:04:14.750Z,9.55
2023-02-06T00:06:42.500Z,11.23
2023-02-06T00:09:10.083Z,11.07
2023-02-06T00:11:39.615Z,8.65
2023-02-06T00:14:07.151Z,8.70
2023-02-06T00:16:35.568Z,9.13
2023-02-06T00:19:04.958Z,9.73
2023-02-06T00:21:33.404Z,8.23
2023-02-06T00:24:03.800Z,8.45
2023-02-06T00:26:31.697Z,6.13
2023-02-06T00:28:59.146Z,8.05
2023-02-06T00:31:26.462Z,8.32
2023-02-06T00:33:53.606Z,6.22
2023-02-06T00:36:20.887Z,11.50
2023-02-06T00:38:48.097Z,8.57
2023-02-06T00:41:17.552Z,9.73
2023-02-06T00:43:47.271Z,9.60
2023-02-06T00:46:14.566Z,8.70
2023-02-06T00:48:42.207Z,11.27
2023-02-06T00:51:09.605Z,6.73
2023-02-06T00:53:40.030Z,6.30
2023-02-06T00:56:07.195Z,10.02
2023-02-06T00:58:34.537Z,4.97
2023-02-06T01:01:01.825Z,10.90
2023-02-06T01:03:31.331Z,8.47
2023-02-06T01:06:00.798Z,9.73
2023-02-06T01:08:30.203Z,10.25
2023-02-06T01:11:08.695Z,11.75
2023-02-06T01:13:35.898Z,10.50
2023-02-06T01:16:03.232Z,10.73
2023-02-06T01:18:32.656Z,6.18
2023-02-06T01:21:02.022Z,7.25
2023-02-06T01:23:29.910Z,8.27
2023-02-06T01:25:59.514Z,10.38
2023-02-06T01:28:27.172Z,8.77
2023-02-06T01:30:54.775Z,9.07
2023-02-06T01:33:26.520Z,5.15
2023-02-06T01:35:56.943Z,4.80
2023-02-06T01:38:26.317Z,8.18
2023-02-06T01:40:59.942Z,10.13
2023-02-06T01:43:33.881Z,12.40
2023-02-06T01:46:01.696Z,7.85
2023-02-06T01:48:45.588Z,12.07
2023-02-06T01:51:19.853Z,11.10
2023-02-06T01:53:51.294Z,12.17
2023-02-06T01:56:20.475Z,8.85
2023-02-06T01:58:58.054Z,7.53
2023-02-06T02:01:25.349Z,8.55
2023-02-06T02:03:56.271Z,4.40
2023-02-06T02:06:26.722Z,13.57
2023-02-06T02:08:58.196Z,6.47
2023-02-06T02:11:33.542Z,8.23
2023-02-06T02:14:03.545Z,7.85
2023-02-06T02:17:08.652Z,10.82
2023-02-06T02:20:14.280Z,7.60
2023-02-06T02:22:44.899Z,8.52
2023-02-06T02:25:40.453Z,11.98
2023-02-06T02:28:32.592Z,8.52
2023-02-06T02:31:18.108Z,3.25
2023-02-06T02:34:00.548Z,12.90
2023-02-06T02:36:32.329Z,10.00
2023-02-06T02:39:21.587Z,10.35
2023-02-06T02:42:31.922Z,8.15
2023-02-06T02:45:09.447Z,9.75
2023-02-06T02:47:46.068Z,10.20
2023-02-06T02:50:13.670Z,17.17
2023-02-06T02:52:40.939Z,10.27
2023-02-06T02:55:22.972Z,12.75
2023-02-06T02:58:02.062Z,7.65
2023-02-06T03:00:36.917Z,10.43
2023-02-06T03:03:06.322Z,13.10
2023-02-06T03:05:38.198Z,8.20
2023-02-06T03:08:27.292Z,5.68
2023-02-06T03:11:12.373Z,7.43
2023-02-06T03:14:06.877Z,7.80
2023-02-06T03:16:42.538Z,7.20
2023-02-06T03:19:13.565Z,5.40
2023-02-06T03:21:42.891Z,6.65
2023-02-06T03:24:21.450Z,9.35
2023-02-06T03:26:56.672Z,6.93
2023-02-06T03:29:24.666Z,6.63
2023-02-06T03:32:04.894Z,8.88
2023-02-06T03:34:43.557Z,6.03
2023-02-06T03:37:37.179Z,8.13
2023-02-06T03:40:05.964Z,7.93
2023-02-06T03:42:35.865Z,6.55
2023-02-06T03:45:07.396Z,15.30
2023-02-06T03:47:37.977Z,9.68
2023-02-06T03:50:10.700Z,8.65
2023-02-06T03:52:40.857Z,11.40
2023-02-06T03:55:13.979Z,10.15
2023-02-06T03:57:45.000Z,12.32
2023-02-06T04:00:12.778Z,14.68
2023-02-06T04:02:40.827Z,12.40
2023-02-06T04:05:11.718Z,8.60
2023-02-06T04:07:41.326Z,9.13
2023-02-06T04:10:08.614Z,10.07
2023-02-06T04:12:36.199Z,11.98
2023-02-06T04:15:04.030Z,12.40
2023-02-06T04:17:49.834Z,13.27
2023-02-06T04:20:20.941Z,9.45
2023-02-06T04:22:50.421Z,13.95
2023-02-06T04:25:17.735Z,12.43
2023-02-06T04:28:12.114Z,18.63
2023-02-06T04:30:44.429Z,13.13
2023-02-06T04:33:11.618Z,15.32
2023-02-06T04:35:38.831Z,13.82
2023-02-06T04:38:06.033Z,13.13
2023-02-06T04:40:33.167Z,13.05
2023-02-06T04:43:02.462Z,8.57
2023-02-06T04:45:31.838Z,7.43
2023-02-06T04:47:59.590Z,9.13
2023-02-06T04:50:32.369Z,7.00
2023-02-06T04:53:00.017Z,11.23
2023-02-06T04:55:30.338Z,9.33
2023-02-06T04:57:59.802Z,8.50
2023-02-06T05:00:26.959Z,8.38
2023-02-06T05:02:54.366Z,13.00
2023-02-06T05:05:21.588Z,8.25
2023-02-06T05:07:48.763Z,8.63
2023-02-06T05:10:18.353Z,10.73
2023-02-06T05:12:47.085Z,4.90
2023-02-06T05:15:16.396Z,6.07
2023-02-06T05:17:45.639Z,9.57
2023-02-06T05:20:12.824Z,10.03
2023-02-06T05:22:40.050Z,10.40
2023-02-06T05:25:10.368Z,10.18
2023-02-06T05:27:39.668Z,9.00
2023-02-06T05:30:10.758Z,6.97
2023-02-06T05:32:38.026Z,5.20
2023-02-06T05:35:08.539Z,8.95
2023-02-06T05:37:38.602Z,5.78
2023-02-06T05:40:06.771Z,10.15
2023-02-06T05:42:34.131Z,11.27
2023-02-06T05:45:01.429Z,10.70
2023-02-06T05:47:31.048Z,12.50
2023-02-06T05:50:00.559Z,12.02
2023-02-06T05:52:27.810Z,10.23
2023-02-06T05:54:55.030Z,11.68
2023-02-06T05:57:22.214Z,10.03
2023-02-06T05:59:50.875Z,8.50
2023-02-06T06:02:18.191Z,11.90
2023-02-06T06:04:45.757Z,8.50
2023-02-06T06:07:12.948Z,8.73
2023-02-06T06:09:40.449Z,9.93
2023-02-06T06:12:07.804Z,13.60
2023-02-06T06:14:37.404Z,11.80
2023-02-06T06:17:07.198Z,7.90
2023-02-06T06:19:34.390Z,12.77
2023-02-06T06:22:01.748Z,6.73
2023-02-06T06:24:28.980Z,3.78
2023-02-06T06:26:59.557Z,11.40
2023-02-06T06:29:29.294Z,12.55
2023-02-06T06:31:56.788Z,16.15
2023-02-06T06:34:24.049Z,15.90
2023-02-06T06:36:53.511Z,12.05
2023-02-06T06:39:20.751Z,16.67
2023-02-06T06:41:47.955Z,15.55
2023-02-06T06:44:15.123Z,15.40
2023-02-06T06:46:42.345Z,10.70
2023-02-06T06:49:09.526Z,16.52
2023-02-06T06:51:36.713Z,14.45
2023-02-06T06:54:06.240Z,14.73
2023-02-06T06:56:35.912Z,12.23
2023-02-06T06:59:05.593Z,15.00
2023-02-06T07:01:32.897Z,16.83
2023-02-06T07:04:00.909Z,14.10
2023-02-06T07:06:28.161Z,2.97
2023-02-06T07:08:55.426Z,12.38
2023-02-06T07:11:24.265Z,13.07
2023-02-06T07:13:51.743Z,12.82
2023-02-06T07:16:21.182Z,10.52
2023-02-06T07:18:48.448Z,14.45
2023-02-06T07:21:19.881Z,9.82
2023-02-06T07:23:49.336Z,13.23
2023-02-06T07:26:16.511Z,7.75
2023-02-06T07:28:43.753Z,12.82
2023-02-06T07:31:10.977Z,12.40
2023-02-06T07:33:38.237Z,13.27
2023-02-06T07:36:05.653Z,10.07
2023-02-06T07:38:34.970Z,12.25
2023-02-06T07:41:02.792Z,14.98
2023-02-06T07:43:30.898Z,11.95
2023-02-06T07:46:02.430Z,13.85
2023-02-06T07:48:33.366Z,9.03
2023-02-06T07:51:05.371Z,14.00
2023-02-06T07:53:32.566Z,13.82
2023-02-06T07:56:01.086Z,16.60
2023-02-06T07:58:30.951Z,12.82
2023-02-06T08:01:03.701Z,13.07
2023-02-06T08:03:31.123Z,12.98
2023-02-06T08:06:00.764Z,11.50
2023-02-06T08:08:28.078Z,3.20
2023-02-06T08:10:55.217Z,11.93
2023-02-06T08:13:22.424Z,5.40
2023-02-06T08:15:49.746Z,12.05
2023-02-06T08:18:17.074Z,15.48
2023-02-06T08:20:46.561Z,8.25
2023-02-06T08:23:13.763Z,10.82
2023-02-06T08:25:40.913Z,5.93
2023-02-06T08:28:08.199Z,7.80
2023-02-06T08:30:37.017Z,6.72
2023-02-06T08:33:04.357Z,8.20
2023-02-06T08:35:31.484Z,9.18
2023-02-06T08:37:58.727Z,7.53
2023-02-06T08:40:25.888Z,10.88
2023-02-06T08:42:53.075Z,12.70
2023-02-06T08:45:20.282Z,6.70
2023-02-06T08:47:47.455Z,10.90
2023-02-06T08:50:14.776Z,10.53
2023-02-06T08:52:42.075Z,8.35
2023-02-06T08:55:09.214Z,12.13
2023-02-06T08:57:36.403Z,9.20
2023-02-06T09:00:04.950Z,4.25
2023-02-06T09:02:33.050Z,5.47
2023-02-06T09:05:00.220Z,8.38
2023-02-06T09:07:27.443Z,6.47
2023-02-06T09:09:54.589Z,8.00
2023-02-06T09:12:21.825Z,8.88
2023-02-06T09:14:49.742Z,8.47
2023-02-06T09:17:17.190Z,8.98
2023-02-06T09:19:44.364Z,7.13
2023-02-06T09:22:13.903Z,8.65
2023-02-06T09:24:44.243Z,12.63
2023-02-06T09:27:11.485Z,5.33
2023-02-06T09:29:38.654Z,7.28
2023-02-06T09:32:05.831Z,9.05
2023-02-06T09:34:33.426Z,10.15
2023-02-06T09:37:05.231Z,11.95
2023-02-06T09:39:33.074Z,11.53
2023-02-06T09:42:07.375Z,14.02
2023-02-06T09:44:39.262Z,10.60
2023-02-06T09:47:26.171Z,5.85
2023-02-06T09:49:58.767Z,4.70
2023-02-06T09:52:37.849Z,5.77
2023-02-06T09:55:10.772Z,11.20
2023-02-06T09:58:07.664Z,10.73
2023-02-06T10:00:43.959Z,6.75
2023-02-06T10:03:43.733Z,6.20
2023-02-06T10:06:19.910Z,7.23
2023-02-06T10:08:56.926Z,5.85
2023-02-06T10:11:57.730Z,6.70
2023-02-06T10:14:32.033Z,6.40
2023-02-06T10:17:21.780Z,2.97
2023-02-06T10:19:57.631Z,5.60
2023-02-06T10:22:36.239Z,8.55
2023-02-06T10:25:36.606Z,10.80
2023-02-06T10:28:27.057Z,11.75
2023-02-06T10:31:25.194Z,8.82
2023-02-06T10:34:01.476Z,6.47
2023-02-06T10:36:49.979Z,6.65
2023-02-06T10:39:31.507Z,7.30
2023-02-06T10:42:19.487Z,11.25
2023-02-06T10:45:21.885Z,7.57
2023-02-06T10:47:55.796Z,9.17
2023-02-06T10:50:41.712Z,9.55
2023-02-06T10:53:34.124Z,10.73
2023-02-06T10:56:14.303Z,7.88
2023-02-06T10:59:07.713Z,8.25
2023-02-06T11:01:41.848Z,6.30
2023-02-06T11:04:21.688Z,6.40
2023-02-06T11:06:57.488Z,8.95
2023-02-06T11:09:26.822Z,7.32
2023-02-06T11:11:59.714Z,6.50
2023-02-06T11:14:37.453Z,10.00
2023-02-06T11:17:04.774Z,5.32
2023-02-06T11:19:44.494Z,8.63
2023-02-06T11:22:13.025Z,8.60
2023-02-06T11:24:59.383Z,9.25
2023-02-06T11:27:27.586Z,9.37
2023-02-06T11:30:06.579Z,6.57
2023-02-06T11:32:40.779Z,8.90
2023-02-06T11:35:23.554Z,12.95
2023-02-06T11:37:55.824Z,11.15
2023-02-06T11:40:27.406Z,6.60
2023-02-06T11:43:10.033Z,10.80
2023-02-06T11:45:37.624Z,8.30
2023-02-06T11:48:07.839Z,10.98
2023-02-06T11:50:37.785Z,4.53
2023-02-06T11:53:11.418Z,10.20
2023-02-06T11:55:40.652Z,9.80
2023-02-06T11:58:13.710Z,10.68
2023-02-06T12:00:56.159Z,6.55
2023-02-06T12:03:30.930Z,13.43
2023-02-06T12:06:06.775Z,13.07
2023-02-06T12:09:01.867Z,12.10
2023-02-06T12:11:31.914Z,9.45
2023-02-06T12:14:09.267Z,13.68
2023-02-06T12:16:39.705Z,10.30
2023-02-06T12:19:16.891Z,12.67
2023-02-06T12:21:51.791Z,11.65
2023-02-06T12:24:24.801Z,11.73
2023-02-06T12:26:54.632Z,10.55
2023-02-06T12:29:37.395Z,9.93
2023-02-06T12:32:14.923Z,8.37
2023-02-06T12:34:53.771Z,12.43
2023-02-06T12:37:43.642Z,10.93
2023-02-06T12:40:31.862Z,11.07
2023-02-06T12:43:02.987Z,9.77
2023-02-06T12:45:39.539Z,6.67
2023-02-06T12:48:30.766Z,10.30
2023-02-06T12:51:21.536Z,9.25
2023-02-06T12:54:12.703Z,8.05
2023-02-06T12:56:47.813Z,7.43
2023-02-06T12:59:58.347Z,13.67
2023-02-06T13:03:03.584Z,9.40
2023-02-06T13:05:57.653Z,4.28
2023-02-06T13:08:28.049Z,7.68
2023-02-06T13:11:06.059Z,10.18
2023-02-06T13:13:36.892Z,12.20
2023-02-06T13:16:07.359Z,9.38
2023-02-06T13:19:01.364Z,9.48
2023-02-06T13:21:32.483Z,9.20
2023-02-06T13:24:02.457Z,10.80
2023-02-06T13:27:12.138Z,12.57
2023-02-06T13:29:45.259Z,11.40
2023-02-06T13:32:12.504Z,7.32
2023-02-06T13:34:48.723Z,8.27
2023-02-06T13:37:34.221Z,6.07
2023-02-06T13:40:32.305Z,8.17
2023-02-06T13:43:11.386Z,8.85
2023-02-06T13:45:50.593Z,8.20
2023-02-06T13:48:41.501Z,7.32
2023-02-06T13:51:30.016Z,7.82
2023-02-06T13:54:03.123Z,7.30
2023-02-06T13:56:41.873Z,7.75
2023-02-06T13:59:17.773Z,7.18
2023-02-06T14:01:45.437Z,10.57
2023-02-06T14:04:23.326Z,12.55
2023-02-06T14:07:07.957Z,9.17
2023-02-06T14:09:53.629Z,11.05
2023-02-06T14:12:35.676Z,7.95
2023-02-06T14:15:25.830Z,12.07
2023-02-06T14:18:32.963Z,9.55
2023-02-06T14:21:06.453Z,11.80
2023-02-06T14:23:39.610Z,11.38
2023-02-06T14:26:45.025Z,9.18
2023-02-06T14:29:15.288Z,13.18
2023-02-06T14:32:06.737Z,10.68
2023-02-06T14:34:52.258Z,12.40
2023-02-06T14:37:57.222Z,16.67
2023-02-06T14:40:26.902Z,7.68
2023-02-06T14:42:58.143Z,12.82
2023-02-06T14:45:41.678Z,13.52
2023-02-06T14:48:48.057Z,9.07
2023-02-06T14:51:26.724Z,13.38
2023-02-06T14:54:01.626Z,9.32
2023-02-06T14:56:31.862Z,13.60
2023-02-06T14:59:29.211Z,14.30
2023-02-06T15:02:11.027Z,9.77
2023-02-06T15:04:46.703Z,13.70
2023-02-06T15:07:27.375Z,14.40
2023-02-06T15:10:23.758Z,11.50
2023-02-06T15:12:52.767Z,14.05
2023-02-06T15:15:25.148Z,12.10
2023-02-06T15:18:03.120Z,11.57
2023-02-06T15:20:36.444Z,11.82
2023-02-06T15:23:17.584Z,15.10
2023-02-06T15:25:59.113Z,9.35
2023-02-06T15:28:30.966Z,6.87
2023-02-06T15:31:00.272Z,14.93
2023-02-06T15:33:31.026Z,12.73
2023-02-06T15:36:00.242Z,12.88
2023-02-06T15:38:28.729Z,14.80
2023-02-06T15:41:00.037Z,15.33
2023-02-06T15:43:28.031Z,14.43
2023-02-06T15:45:59.807Z,19.95
2023-02-06T15:48:52.907Z,13.85
2023-02-06T15:51:38.315Z,13.27
2023-02-06T15:54:27.068Z,13.43
2023-02-06T15:57:17.335Z,17.45
2023-02-06T15:59:45.462Z,14.85
2023-02-06T16:02:30.077Z,14.82
2023-02-06T16:04:57.595Z,16.67
2023-02-06T16:07:27.648Z,12.37
2023-02-06T16:10:04.015Z,12.68
2023-02-06T16:12:42.300Z,11.85
2023-02-06T16:15:35.656Z,18.60
2023-02-06T16:18:38.719Z,14.68
2023-02-06T16:21:12.675Z,10.73
2023-02-06T16:23:59.282Z,13.88
2023-02-06T16:26:29.104Z,16.00
2023-02-06T16:29:03.576Z,15.38
2023-02-06T16:31:34.278Z,15.60
2023-02-06T16:34:03.415Z,12.50
2023-02-06T16:36:32.407Z,14.13
2023-02-06T16:39:04.393Z,11.95
2023-02-06T16:41:39.054Z,12.23
2023-02-06T16:44:15.621Z,17.23
2023-02-06T16:46:43.635Z,14.83
2023-02-06T16:49:13.372Z,17.77
2023-02-06T16:51:42.678Z,14.32
2023-02-06T16:54:19.842Z,15.30
2023-02-06T16:56:47.547Z,15.68
2023-02-06T16:59:14.737Z,17.10
2023-02-06T17:01:42.230Z,21.83
2023-02-06T17:04:09.407Z,15.80
2023-02-06T17:06:41.583Z,20.85
2023-02-06T17:09:17.413Z,20.10
2023-02-06T17:11:49.481Z,18.47
2023-02-06T17:14:16.650Z,20.85
2023-02-06T17:16:43.954Z,18.23
2023-02-06T17:19:15.805Z,22.25
2023-02-06T17:21:45.413Z,19.48
2023-02-06T17:24:15.058Z,20.27
2023-02-06T17:26:42.269Z,18.35
2023-02-06T17:29:12.905Z,20.63
2023-02-06T17:31:40.211Z,19.60
2023-02-06T17:34:07.356Z,20.70
2023-02-06T17:36:39.619Z,26.73
2023-02-06T17:39:07.495Z,19.40
2023-02-06T17:41:37.025Z,23.38
2023-02-06T17:44:04.722Z,25.33
2023-02-06T17:46:34.084Z,17.08
2023-02-06T17:49:01.304Z,25.50
2023-02-06T17:51:28.450Z,29.80
2023-02-06T17:53:59.052Z,25.92
2023-02-06T17:56:26.280Z,26.42
2023-02-06T17:58:53.453Z,30.25
2023-02-06T18:01:23.112Z,29.90
2023-02-06T18:03:51.064Z,31.33
2023-02-06T18:06:19.543Z,29.20
2023-02-06T18:08:47.451Z,34.03
2023-02-06T18:11:20.199Z,31.35
2023-02-06T18:13:48.989Z,32.13
2023-02-06T18:16:19.805Z,29.63
2023-02-06T18:18:48.389Z,27.35
2023-02-06T18:21:16.638Z,30.55
2023-02-06T18:23:43.799Z,25.98
2023-02-06T18:26:11.883Z,27.40
2023-02-06T18:28:39.597Z,22.05
2023-02-06T18:31:21.485Z,22.70
2023-02-06T18:33:48.736Z,22.23
2023-02-06T18:36:17.242Z,24.60
2023-02-06T18:38:47.088Z,29.37
2023-02-06T18:41:33.095Z,25.30
2023-02-06T18:44:09.142Z,24.52
2023-02-06T18:46:38.832Z,30.02
2023-02-06T18:49:06.656Z,35.53
2023-02-06T18:51:36.107Z,31.07
2023-02-06T18:54:03.594Z,34.10
2023-02-06T18:56:31.027Z,34.78
2023-02-06T18:58:58.156Z,32.15
2023-02-06T19:01:27.854Z,35.00
2023-02-06T19:03:58.304Z,28.97
2023-02-06T19:06:31.849Z,23.77
2023-02-06T19:09:02.202Z,21.70
2023-02-06T19:11:31.542Z,17.90
2023-02-06T19:14:00.930Z,22.58
2023-02-06T19:16:28.547Z,21.10
2023-02-06T19:18:56.245Z,25.63
2023-02-06T19:21:25.878Z,23.15
2023-02-06T19:23:58.556Z,25.02
2023-02-06T19:26:26.713Z,23.52
2023-02-06T19:28:54.365Z,21.27
2023-02-06T19:31:24.946Z,16.52
2023-02-06T19:33:57.975Z,18.15
2023-02-06T19:36:26.950Z,17.67
2023-02-06T19:38:59.671Z,18.83
2023-02-06T19:41:29.267Z,14.90
2023-02-06T19:43:57.836Z,18.02
2023-02-06T19:46:26.861Z,21.52
2023-02-06T19:48:55.343Z,22.85
2023-02-06T19:51:26.154Z,17.67
2023-02-06T19:53:55.307Z,19.67
2023-02-06T19:56:39.286Z,18.27
2023-02-06T19:59:18.425Z,22.58
2023-02-06T20:01:54.116Z,25.08
2023-02-06T20:04:24.803Z,24.80
2023-02-06T20:06:52.010Z,26.60
2023-02-06T20:09:20.968Z,27.10
2023-02-06T20:11:51.612Z,24.92
2023-02-06T20:14:19.103Z,27.30
2023-02-06T20:16:49.391Z,29.35
2023-02-06T20:19:20.445Z,29.97
2023-02-06T20:21:50.408Z,27.15
2023-02-06T20:24:23.938Z,32.67
2023-02-06T20:26:56.015Z,25.10
2023-02-06T20:29:32.492Z,28.75
2023-02-06T20:32:00.485Z,22.60
2023-02-06T20:34:27.944Z,28.05
2023-02-06T20:36:56.021Z,27.02
2023-02-06T20:39:23.761Z,26.13
2023-02-06T20:41:53.524Z,27.75
2023-02-06T20:44:20.807Z,25.17
2023-02-06T20:46:48.326Z,31.17
2023-02-06T20:49:18.284Z,29.75
2023-02-06T20:51:45.530Z,32.50
2023-02-06T20:54:18.286Z,29.10
2023-02-06T20:56:45.818Z,30.17
2023-02-06T20:59:17.019Z,34.55
2023-02-06T21:01:44.680Z,35.28
2023-02-06T21:04:14.718Z,36.50
2023-02-06T21:06:43.199Z,45.72
2023-02-06T21:09:12.010Z,38.57
2023-02-06T21:11:47.611Z,39.58
2023-02-06T21:14:19.556Z,36.45
2023-02-06T21:16:49.465Z,28.80
2023-02-06T21:19:18.709Z,33.80
2023-02-06T21:21:48.246Z,34.33
2023-02-06T21:24:17.287Z,19.45
2023-02-06T21:26:46.752Z,27.85
2023-02-06T21:29:16.717Z,19.08
2023-02-06T21:31:44.848Z,30.55
2023-02-06T21:34:14.976Z,24.77
2023-02-06T21:36:42.934Z,29.98
2023-02-06T21:39:14.651Z,30.65
2023-02-06T21:41:41.894Z,31.42
2023-02-06T21:44:11.678Z,32.58
2023-02-06T21:46:38.997Z,32.00
2023-02-06T21:49:11.571Z,29.83
2023-02-06T21:51:39.442Z,25.52
2023-02-06T21:54:07.541Z,26.23
2023-02-06T21:56:38.110Z,27.67
2023-02-06T21:59:06.543Z,30.17
2023-02-06T22:01:34.654Z,30.80
2023-02-06T22:04:03.471Z,29.30
2023-02-06T22:06:31.125Z,25.33
2023-02-06T22:09:05.262Z,26.17
2023-02-06T22:11:32.610Z,23.10
2023-02-06T22:14:09.915Z,24.80
2023-02-06T22:16:39.536Z,24.27
2023-02-06T22:19:07.147Z,22.65
2023-02-06T22:21:35.103Z,24.40
2023-02-06T22:24:06.851Z,24.23
2023-02-06T22:26:38.508Z,22.65
2023-02-06T22:29:07.886Z,22.15
2023-02-06T22:31:36.381Z,27.35
2023-02-06T22:34:03.759Z,31.25
2023-02-06T22:36:33.470Z,28.93
2023-02-06T22:39:03.679Z,32.55
2023-02-06T22:41:30.889Z,31.67
2023-02-06T22:43:58.530Z,30.40
2023-02-06T22:46:31.007Z,26.20
2023-02-06T22:48:58.828Z,27.27
2023-02-06T22:51:30.738Z,32.60
2023-02-06T22:54:00.644Z,25.30
2023-02-06T22:56:37.119Z,39.30
2023-02-06T22:59:10.339Z,28.70
2023-02-06T23:01:41.364Z,26.70
2023-02-06T23:04:12.234Z,30.23
2023-02-06T23:06:40.144Z,31.02
2023-02-06T23:09:09.795Z,32.15
2023-02-06T23:11:39.229Z,27.40
2023-02-06T23:14:06.571Z,30.00
2023-02-06T23:16:36.314Z,31.00
2023-02-06T23:19:07.596Z,24.60
2023-02-06T23:21:38.695Z,30.95
2023-02-06T23:24:09.226Z,26.02
2023-02-06T23:26:36.879Z,20.67
2023-02-06T23:29:07.118Z,29.80
2023-02-06T23:31:37.319Z,23.88
2023-02-06T23:34:04.666Z,24.75
2023-02-06T23:36:31.898Z,27.65
2023-02-06T23:39:04.381Z,25.07
2023-02-06T23:41:33.778Z,30.40
2023-02-06T23:44:05.299Z,27.85
2023-02-06T23:46:36.954Z,26.70
2023-02-06T23:49:05.948Z,20.05
2023-02-06T23:51:33.643Z,25.10
2023-02-06T23:54:00.911Z,21.60
2023-02-06T23:56:31.747Z,23.27
2023-02-06T23:59:00.768Z,23.70
